Time;durP1;ratioP1;P1;durP2;ratioP2;P2;SDS_P1;SDS_P2;PMS_P1;PMS_P2;Temp;Humidity;BMP_temperature;BMP_pressure;BME280_temperature;BME280_humidity;BME280_pressure;Samples;Min_cycle;Max_cycle;Signal;HPM_P1;HPM_P2
2023/08/30 00:02:41;;;;;;;0.90;0.77;;;;;15.60;95811.00;;;;5031916;28;20229;-86
2023/08/30 00:05:30;;;;;;;0.60;0.60;;;;;15.70;95806.00;;;;5031679;28;20846;-87
2023/08/30 00:08:20;;;;;;;0.43;0.43;;;;;15.70;95807.00;;;;5025853;28;20216;-86
2023/08/30 00:11:09;;;;;;;2.60;0.60;;;;;15.70;95814.00;;;;5030054;28;20232;-86
2023/08/30 00:14:05;;;;;;;1.03;0.53;;;;;15.70;95822.00;;;;5031081;28;20209;-85
2023/08/30 00:16:54;;;;;;;2.47;0.70;;;;;15.80;95818.00;;;;5031479;28;20213;-84
2023/08/30 00:19:43;;;;;;;0.63;0.60;;;;;15.60;95819.00;;;;5028444;28;20267;-85
2023/08/30 00:22:32;;;;;;;0.43;0.40;;;;;15.40;95820.00;;;;5031004;28;20321;-86
2023/08/30 00:25:22;;;;;;;1.63;0.53;;;;;15.30;95834.00;;;;5025879;28;20202;-86
2023/08/30 00:28:12;;;;;;;3.50;0.60;;;;;15.30;95827.00;;;;5030084;28;20205;-86
2023/08/30 00:31:01;;;;;;;0.40;0.30;;;;;15.40;95827.00;;;;5028962;28;20257;-87
2023/08/30 00:33:50;;;;;;;2.10;0.33;;;;;15.40;95835.00;;;;5030420;28;20206;-87
2023/08/30 00:36:39;;;;;;;0.63;0.53;;;;;15.40;95844.00;;;;5031029;28;20204;-87
2023/08/30 00:39:28;;;;;;;1.60;0.43;;;;;15.50;95845.00;;;;5030599;28;20209;-86
2023/08/30 00:42:18;;;;;;;0.70;0.40;;;;;15.40;95833.00;;;;5024906;28;20598;-86
2023/08/30 00:45:08;;;;;;;0.30;0.20;;;;;15.00;95841.00;;;;5030145;28;20217;-85
2023/08/30 00:47:57;;;;;;;0.70;0.50;;;;;15.20;95834.00;;;;5030556;28;20205;-85
2023/08/30 00:50:47;;;;;;;1.53;0.50;;;;;15.00;95835.00;;;;5030031;28;20276;-87
2023/08/30 00:53:36;;;;;;;0.30;0.30;;;;;15.10;95838.00;;;;5029832;28;20211;-86
2023/08/30 00:56:25;;;;;;;0.40;0.33;;;;;15.20;95845.00;;;;5027718;28;20236;-86
2023/08/30 00:59:15;;;;;;;0.73;0.43;;;;;15.50;95853.00;;;;5030858;28;20209;-85
2023/08/30 01:02:06;;;;;;;2.03;0.60;;;;;15.50;95862.00;;;;5029543;28;20213;-85
2023/08/30 01:04:55;;;;;;;3.17;0.70;;;;;15.40;95864.00;;;;5028685;28;20201;-86
2023/08/30 01:07:44;;;;;;;1.60;0.50;;;;;15.40;95865.00;;;;5029466;28;20209;-84
2023/08/30 01:10:42;;;;;;;0.80;0.50;;;;;15.60;95860.00;;;;5024081;28;20236;-86
2023/08/30 01:13:33;;;;;;;4.43;0.47;;;;;15.10;95859.00;;;;5029256;28;20203;-84
2023/08/30 01:16:25;;;;;;;0.20;0.20;;;;;15.50;95860.00;;;;5024719;28;20197;-84
2023/08/30 01:19:27;;;;;;;0.30;0.30;;;;;15.30;95861.00;;;;5029413;28;20213;-84
2023/08/30 01:22:20;;;;;;;0.30;0.30;;;;;15.50;95856.00;;;;5029018;28;20232;-86
2023/08/30 01:25:21;;;;;;;0.47;0.40;;;;;15.60;95856.00;;;;5029068;28;20827;-85
2023/08/30 01:28:11;;;;;;;1.60;0.47;;;;;15.70;95861.00;;;;5022026;28;20587;-86
2023/08/30 01:31:01;;;;;;;1.07;0.67;;;;;15.60;95854.00;;;;5027994;28;20244;-84
2023/08/30 01:33:50;;;;;;;1.10;0.33;;;;;15.70;95856.00;;;;5026930;28;20205;-84
2023/08/30 01:36:42;;;;;;;1.33;0.53;;;;;15.50;95863.00;;;;5028310;28;20205;-86
2023/08/30 01:39:31;;;;;;;2.30;0.53;;;;;15.60;95853.00;;;;5030006;28;20201;-86
2023/08/30 01:42:22;;;;;;;1.37;0.50;;;;;15.60;95866.00;;;;5021009;28;20275;-85
2023/08/30 01:45:13;;;;;;;0.40;0.40;;;;;15.60;95863.00;;;;5025552;28;20205;-85
2023/08/30 01:48:03;;;;;;;1.70;0.50;;;;;15.60;95864.00;;;;5029311;28;20213;-85
2023/08/30 01:50:54;;;;;;;0.30;0.30;;;;;15.40;95864.00;;;;5028761;28;20225;-85
2023/08/30 01:53:44;;;;;;;0.93;0.37;;;;;15.60;95858.00;;;;5025389;28;20201;-86
2023/08/30 01:56:33;;;;;;;1.47;0.30;;;;;15.30;95851.00;;;;5026808;28;20236;-84
2023/08/30 01:59:22;;;;;;;0.70;0.40;;;;;15.40;95858.00;;;;5025060;28;20599;-85
2023/08/30 02:02:12;;;;;;;2.67;0.53;;;;;15.40;95860.00;;;;5027909;28;20300;-86
2023/08/30 02:05:01;;;;;;;0.20;0.20;;;;;15.30;95857.00;;;;5026124;28;20205;-84
2023/08/30 02:07:56;;;;;;;2.63;0.27;;;;;15.50;95855.00;;;;5028168;28;20816;-86
2023/08/30 02:10:49;;;;;;;1.37;0.33;;;;;15.30;95847.00;;;;5027489;28;20240;-85
2023/08/30 02:13:40;;;;;;;0.40;0.40;;;;;15.20;95834.00;;;;5029019;28;20209;-84
2023/08/30 02:16:30;;;;;;;0.53;0.40;;;;;15.20;95845.00;;;;5022516;28;20219;-85
2023/08/30 02:19:21;;;;;;;1.60;0.43;;;;;15.20;95829.00;;;;5026725;28;20205;-86
2023/08/30 02:22:10;;;;;;;0.97;0.57;;;;;15.00;95841.00;;;;5027978;28;20720;-87
2023/08/30 02:25:01;;;;;;;0.60;0.40;;;;;15.10;95839.00;;;;5028019;28;20704;-86
2023/08/30 02:27:50;;;;;;;1.50;0.93;;;;;15.20;95839.00;;;;5036578;28;20221;-84
2023/08/30 02:30:39;;;;;;;2.67;0.40;;;;;15.40;95842.00;;;;5052643;28;20229;-84
2023/08/30 02:33:29;;;;;;;0.40;0.30;;;;;15.40;95848.00;;;;5048209;28;20205;-89
2023/08/30 02:36:19;;;;;;;0.30;0.30;;;;;15.40;95839.00;;;;5027272;28;20208;-87
2023/08/30 02:39:08;;;;;;;3.73;0.37;;;;;15.30;95840.00;;;;5032903;28;20213;-88
2023/08/30 02:41:57;;;;;;;2.03;0.37;;;;;15.30;95843.00;;;;5030413;28;20698;-85
2023/08/30 02:44:46;;;;;;;0.50;0.40;;;;;15.40;95846.00;;;;5029760;28;20213;-87
2023/08/30 02:47:35;;;;;;;1.03;0.40;;;;;15.30;95851.00;;;;5028453;28;20197;-85
2023/08/30 02:50:24;;;;;;;0.63;0.50;;;;;15.30;95845.00;;;;5024576;28;20220;-87
2023/08/30 02:53:14;;;;;;;6.57;0.40;;;;;15.50;95852.00;;;;5033162;28;20229;-86
2023/08/30 02:56:04;;;;;;;1.90;0.30;;;;;15.60;95849.00;;;;5030198;28;20228;-88
2023/08/30 02:58:53;;;;;;;1.60;0.50;;;;;15.60;95853.00;;;;5026630;28;20205;-87
2023/08/30 03:01:43;;;;;;;1.00;0.40;;;;;15.50;95851.00;;;;5030501;28;20597;-88
2023/08/30 03:04:32;;;;;;;1.90;0.53;;;;;15.40;95852.00;;;;5028360;28;20210;-88
2023/08/30 03:07:21;;;;;;;0.30;0.23;;;;;15.50;95850.00;;;;5030728;28;20216;-86
2023/08/30 03:10:12;;;;;;;1.40;0.47;;;;;15.40;95855.00;;;;5030623;28;20219;-87
2023/08/30 03:13:01;;;;;;;0.97;0.40;;;;;15.60;95851.00;;;;5029585;28;20225;-87
2023/08/30 03:15:50;;;;;;;2.87;0.60;;;;;15.60;95849.00;;;;5029966;28;20205;-88
2023/08/30 03:18:39;;;;;;;0.53;0.30;;;;;15.60;95856.00;;;;5029398;28;20201;-84
2023/08/30 03:21:28;;;;;;;2.87;0.40;;;;;15.60;95856.00;;;;5025857;28;20240;-88
2023/08/30 03:24:17;;;;;;;0.40;0.30;;;;;15.40;95856.00;;;;5029722;28;20678;-86
2023/08/30 03:27:08;;;;;;;1.07;0.73;;;;;15.60;95845.00;;;;5025047;28;20552;-89
2023/08/30 03:29:57;;;;;;;1.90;0.30;;;;;15.60;95847.00;;;;5031102;28;20220;-86
2023/08/30 03:32:46;;;;;;;0.80;0.40;;;;;15.40;95849.00;;;;5029232;28;20224;-88
2023/08/30 03:35:36;;;;;;;0.30;0.23;;;;;15.10;95841.00;;;;5034440;28;20220;-88
2023/08/30 03:38:25;;;;;;;0.30;0.30;;;;;15.20;95850.00;;;;5030374;28;20208;-87
2023/08/30 03:41:14;;;;;;;3.47;0.70;;;;;15.30;95846.00;;;;5033898;28;20234;-85
2023/08/30 03:44:05;;;;;;;0.57;0.30;;;;;15.10;95841.00;;;;5030627;28;20205;-85
2023/08/30 03:46:56;;;;;;;2.10;0.60;;;;;15.20;95833.00;;;;5033175;28;20205;-86
2023/08/30 03:49:45;;;;;;;0.87;0.70;;;;;15.40;95833.00;;;;5034415;28;20219;-86
2023/08/30 03:52:34;;;;;;;0.50;0.50;;;;;15.20;95828.00;;;;5033411;28;20307;-87
2023/08/30 03:55:23;;;;;;;0.40;0.40;;;;;14.90;95829.00;;;;5026535;28;20201;-87
2023/08/30 03:58:13;;;;;;;0.90;0.33;;;;;14.40;95826.00;;;;5031965;28;20201;-87
2023/08/30 04:01:03;;;;;;;3.17;0.80;;;;;14.90;95831.00;;;;5032601;28;20229;-85
2023/08/30 04:03:52;;;;;;;0.50;0.50;;;;;14.80;95830.00;;;;5030517;28;20213;-87
2023/08/30 04:06:41;;;;;;;1.13;0.63;;;;;14.90;95837.00;;;;5026213;28;20568;-86
2023/08/30 04:09:30;;;;;;;1.80;0.53;;;;;15.00;95827.00;;;;5029910;28;20198;-86
2023/08/30 04:12:19;;;;;;;0.80;0.50;;;;;15.10;95823.00;;;;5026593;28;20233;-87
2023/08/30 04:15:12;;;;;;;0.30;0.30;;;;;15.00;95831.00;;;;5022746;28;20704;-86
2023/08/30 04:18:03;;;;;;;1.97;0.77;;;;;15.10;95825.00;;;;5029860;28;20557;-86
2023/08/30 04:20:52;;;;;;;1.23;0.80;;;;;15.20;95828.00;;;;5031088;28;20232;-87
2023/08/30 04:23:41;;;;;;;1.90;0.70;;;;;15.20;95833.00;;;;5030498;28;20197;-86
2023/08/30 04:26:30;;;;;;;1.23;0.57;;;;;15.20;95822.00;;;;5032382;28;20220;-85
2023/08/30 04:29:19;;;;;;;0.30;0.30;;;;;15.20;95817.00;;;;5025771;28;20584;-86
2023/08/30 04:32:08;;;;;;;3.37;0.43;;;;;15.20;95822.00;;;;5032447;28;20225;-86
2023/08/30 04:34:58;;;;;;;1.87;0.50;;;;;15.30;95831.00;;;;5030332;28;20209;-86
2023/08/30 04:37:48;;;;;;;1.47;0.43;;;;;15.30;95829.00;;;;5031352;28;20202;-85
2023/08/30 04:40:37;;;;;;;0.50;0.43;;;;;15.20;95820.00;;;;5032952;28;20198;-86
2023/08/30 04:43:26;;;;;;;0.97;0.83;;;;;15.10;95821.00;;;;5032234;28;20570;-86
2023/08/30 04:46:15;;;;;;;1.10;0.70;;;;;15.20;95820.00;;;;5027622;28;20205;-86
2023/08/30 04:49:04;;;;;;;1.10;0.57;;;;;15.10;95818.00;;;;5030022;28;20211;-87
2023/08/30 04:51:54;;;;;;;1.80;0.67;;;;;14.90;95816.00;;;;5028393;28;20217;-85
2023/08/30 04:54:45;;;;;;;1.90;0.43;;;;;14.90;95825.00;;;;5032097;28;20213;-86
2023/08/30 04:57:34;;;;;;;4.33;0.90;;;;;15.10;95832.00;;;;5031278;28;20213;-86
2023/08/30 05:00:23;;;;;;;0.50;0.50;;;;;15.30;95842.00;;;;5024949;28;20208;-85
2023/08/30 05:03:12;;;;;;;0.50;0.40;;;;;15.30;95835.00;;;;5031256;28;20190;-86
2023/08/30 05:06:01;;;;;;;1.27;0.50;;;;;15.00;95832.00;;;;5029238;28;20213;-85
2023/08/30 05:08:51;;;;;;;0.40;0.40;;;;;14.90;95829.00;;;;5031612;28;20198;-85
2023/08/30 05:11:41;;;;;;;2.40;0.80;;;;;14.70;95823.00;;;;5027387;28;20225;-86
2023/08/30 05:14:30;;;;;;;0.60;0.40;;;;;14.70;95822.00;;;;5030282;28;20206;-85
2023/08/30 05:17:19;;;;;;;0.50;0.50;;;;;14.80;95832.00;;;;5026908;28;20674;-87
2023/08/30 05:20:09;;;;;;;0.70;0.40;;;;;14.90;95834.00;;;;5029860;28;20206;-85
2023/08/30 05:22:58;;;;;;;1.23;0.57;;;;;14.80;95837.00;;;;5028002;28;20208;-86
2023/08/30 05:25:49;;;;;;;0.70;0.50;;;;;15.00;95845.00;;;;5029475;28;20193;-87
2023/08/30 05:28:38;;;;;;;0.47;0.30;;;;;15.00;95846.00;;;;5028359;28;20202;-86
2023/08/30 05:31:27;;;;;;;0.93;0.40;;;;;15.10;95848.00;;;;5029342;28;20240;-86
2023/08/30 05:34:16;;;;;;;1.70;0.40;;;;;14.90;95851.00;;;;5030277;28;20229;-87
2023/08/30 05:37:05;;;;;;;0.50;0.43;;;;;14.90;95849.00;;;;5029145;28;20208;-87
2023/08/30 05:39:54;;;;;;;0.60;0.50;;;;;15.10;95847.00;;;;5029825;28;20198;-85
2023/08/30 05:42:45;;;;;;;0.43;0.43;;;;;15.10;95840.00;;;;5024069;28;20217;-85
2023/08/30 05:45:34;;;;;;;0.80;0.50;;;;;15.50;95850.00;;;;5022292;28;20208;-86
2023/08/30 05:48:23;;;;;;;1.33;0.50;;;;;15.90;95860.00;;;;5029392;28;20204;-85
2023/08/30 05:51:12;;;;;;;2.03;0.50;;;;;16.00;95865.00;;;;5027486;28;20221;-85
2023/08/30 05:54:02;;;;;;;3.50;0.60;;;;;15.90;95865.00;;;;5028660;28;20225;-86
2023/08/30 05:56:51;;;;;;;0.30;0.30;;;;;15.90;95861.00;;;;5027718;28;20220;-85
2023/08/30 05:59:41;;;;;;;0.40;0.40;;;;;15.90;95862.00;;;;5027644;28;20209;-85
2023/08/30 06:02:30;;;;;;;0.70;0.60;;;;;16.00;95865.00;;;;5028169;28;20221;-85
2023/08/30 06:05:19;;;;;;;0.40;0.40;;;;;16.00;95868.00;;;;5028287;28;20201;-86
2023/08/30 06:08:08;;;;;;;0.33;0.30;;;;;16.10;95874.00;;;;5028221;28;20209;-86
2023/08/30 06:10:58;;;;;;;0.40;0.30;;;;;16.10;95871.00;;;;5027176;28;20225;-86
2023/08/30 06:13:47;;;;;;;0.20;0.20;;;;;16.30;95886.00;;;;5017923;28;20256;-86
2023/08/30 06:16:37;;;;;;;0.37;0.33;;;;;16.40;95871.00;;;;5023685;28;20209;-86
2023/08/30 06:19:26;;;;;;;0.93;0.50;;;;;16.40;95877.00;;;;5028979;28;20197;-84
2023/08/30 06:22:15;;;;;;;2.23;0.30;;;;;16.50;95874.00;;;;5022481;28;20227;-86
2023/08/30 06:25:06;;;;;;;0.30;0.30;;;;;16.40;95875.00;;;;5028096;28;20193;-86
2023/08/30 06:28:01;;;;;;;0.93;0.40;;;;;16.40;95885.00;;;;5026225;28;20580;-86
2023/08/30 06:30:50;;;;;;;0.67;0.30;;;;;16.30;95887.00;;;;5027275;28;20229;-86
2023/08/30 06:33:40;;;;;;;0.50;0.30;;;;;16.30;95888.00;;;;5027561;28;20232;-85
2023/08/30 06:36:30;;;;;;;0.33;0.30;;;;;16.20;95882.00;;;;5024824;28;20206;-85
2023/08/30 06:39:19;;;;;;;0.43;0.43;;;;;16.30;95892.00;;;;5028276;28;20577;-85
2023/08/30 06:42:08;;;;;;;1.73;0.40;;;;;16.40;95886.00;;;;5025102;28;20236;-86
2023/08/30 06:44:57;;;;;;;6.33;0.80;;;;;16.50;95885.00;;;;5028166;28;20197;-85
2023/08/30 06:47:46;;;;;;;2.53;0.70;;;;;16.50;95895.00;;;;5028195;28;20213;-86
2023/08/30 06:50:36;;;;;;;2.77;0.70;;;;;16.60;95896.00;;;;5036581;28;20189;-86
2023/08/30 06:53:26;;;;;;;3.93;0.73;;;;;16.80;95886.00;;;;5053319;28;20220;-85
2023/08/30 06:56:15;;;;;;;2.03;1.00;;;;;16.60;95890.00;;;;5046015;28;20218;-86
2023/08/30 06:59:04;;;;;;;0.80;0.60;;;;;16.50;95894.00;;;;5027408;28;20209;-86
2023/08/30 07:01:53;;;;;;;1.33;1.23;;;;;16.80;95897.00;;;;5024800;28;20227;-88
2023/08/30 07:04:42;;;;;;;0.93;0.70;;;;;16.80;95901.00;;;;5028747;28;20615;-86
2023/08/30 07:07:32;;;;;;;1.20;1.00;;;;;16.70;95903.00;;;;5028606;28;20204;-87
2023/08/30 07:10:22;;;;;;;0.80;0.50;;;;;16.70;95910.00;;;;5028344;28;20201;-86
2023/08/30 07:13:11;;;;;;;0.80;0.80;;;;;16.80;95912.00;;;;5033720;28;20573;-88
2023/08/30 07:16:00;;;;;;;1.50;0.77;;;;;17.00;95913.00;;;;5033394;28;20208;-86
2023/08/30 07:18:50;;;;;;;2.33;0.50;;;;;17.20;95915.00;;;;5032655;28;20200;-87
2023/08/30 07:21:39;;;;;;;1.03;0.70;;;;;17.70;95920.00;;;;5031399;28;20225;-87
2023/08/30 07:24:29;;;;;;;2.80;0.80;;;;;17.60;95923.00;;;;5028140;28;20597;-87
2023/08/30 07:27:18;;;;;;;0.87;0.40;;;;;17.60;95916.00;;;;5030057;28;20701;-89
2023/08/30 07:30:08;;;;;;;1.03;0.40;;;;;17.50;95916.00;;;;5034165;28;20697;-87
2023/08/30 07:32:58;;;;;;;1.73;0.43;;;;;17.40;95919.00;;;;5033491;28;20197;-88
2023/08/30 07:35:47;;;;;;;0.87;0.60;;;;;17.40;95916.00;;;;5037580;28;20216;-88
2023/08/30 07:38:36;;;;;;;0.47;0.47;;;;;17.70;95916.00;;;;5033589;28;20209;-87
2023/08/30 07:41:26;;;;;;;1.47;0.70;;;;;18.10;95920.00;;;;5030774;28;20221;-88
2023/08/30 07:44:16;;;;;;;6.43;0.83;;;;;18.60;95932.00;;;;5033456;28;20220;-88
2023/08/30 07:47:05;;;;;;;0.47;0.47;;;;;18.50;95931.00;;;;5033690;28;20201;-88
2023/08/30 07:49:55;;;;;;;1.87;1.00;;;;;18.60;95939.00;;;;5033152;28;20244;-88
2023/08/30 07:52:44;;;;;;;2.30;0.90;;;;;18.90;95937.00;;;;5026808;28;20217;-88
2023/08/30 07:55:34;;;;;;;3.73;1.50;;;;;19.20;95939.00;;;;5027263;28;20709;-88
2023/08/30 07:58:24;;;;;;;2.10;1.20;;;;;19.50;95941.00;;;;5031799;28;20576;-88
2023/08/30 08:01:14;;;;;;;1.27;1.13;;;;;19.70;95940.00;;;;5032971;28;20225;-88
2023/08/30 08:04:03;;;;;;;1.13;0.80;;;;;19.90;95951.00;;;;5036472;28;20201;-89
2023/08/30 08:06:53;;;;;;;4.17;1.03;;;;;20.10;95966.00;;;;5030448;28;20209;-88
2023/08/30 08:09:44;;;;;;;1.80;1.27;;;;;20.20;95955.00;;;;5027791;28;20205;-88
2023/08/30 08:12:34;;;;;;;2.43;1.00;;;;;20.40;95963.00;;;;5029321;28;20224;-88
2023/08/30 08:15:25;;;;;;;1.37;0.97;;;;;20.60;95962.00;;;;5029466;28;20228;-89
2023/08/30 08:18:14;;;;;;;1.13;0.60;;;;;20.70;95961.00;;;;5025710;28;20210;-87
2023/08/30 08:21:04;;;;;;;3.50;0.93;;;;;21.00;95962.00;;;;5029203;28;20228;-88
2023/08/30 08:24:00;;;;;;;2.27;0.70;;;;;21.10;95974.00;;;;5031632;28;20218;-88
2023/08/30 08:26:50;;;;;;;0.87;0.70;;;;;21.10;95962.00;;;;5026727;28;20781;-88
2023/08/30 08:29:40;;;;;;;1.90;0.70;;;;;21.30;95964.00;;;;5030232;28;20208;-88
2023/08/30 08:32:30;;;;;;;1.27;0.50;;;;;21.40;95970.00;;;;5029603;28;20221;-89
2023/08/30 08:35:19;;;;;;;1.60;0.50;;;;;21.50;95972.00;;;;5026624;28;20271;-88
2023/08/30 08:38:08;;;;;;;1.03;0.30;;;;;21.70;95981.00;;;;5026991;28;20674;-88
2023/08/30 08:41:03;;;;;;;1.00;0.53;;;;;21.80;95972.00;;;;5029325;28;20217;-89
2023/08/30 08:43:53;;;;;;;1.00;0.90;;;;;21.90;95958.00;;;;5022765;28;20248;-88
2023/08/30 08:46:44;;;;;;;0.50;0.50;;;;;22.10;95961.00;;;;5028864;28;20208;-88
2023/08/30 08:49:35;;;;;;;2.87;0.40;;;;;22.20;95962.00;;;;5029921;28;20585;-88
2023/08/30 08:52:25;;;;;;;2.00;0.47;;;;;22.30;95959.00;;;;5027231;28;20229;-87
2023/08/30 08:55:18;;;;;;;0.50;0.40;;;;;22.40;95960.00;;;;5024891;28;20225;-86
2023/08/30 08:58:07;;;;;;;1.80;0.57;;;;;22.40;95965.00;;;;5026850;28;20212;-87
2023/08/30 09:00:56;;;;;;;1.93;0.50;;;;;22.40;95972.00;;;;5028222;28;20255;-87
2023/08/30 09:03:45;;;;;;;1.37;0.63;;;;;22.00;95964.00;;;;5029940;28;20197;-85
2023/08/30 09:06:36;;;;;;;1.37;0.70;;;;;21.60;95970.00;;;;5029548;28;20197;-86
2023/08/30 09:09:25;;;;;;;0.63;0.60;;;;;21.30;95977.00;;;;5028591;28;20205;-87
2023/08/30 09:12:14;;;;;;;0.60;0.50;;;;;22.20;95970.00;;;;5031410;28;20252;-86
2023/08/30 09:15:04;;;;;;;1.10;0.73;;;;;22.60;95964.00;;;;5029635;28;20229;-87
2023/08/30 09:17:53;;;;;;;0.93;0.67;;;;;23.00;95966.00;;;;5029559;28;20202;-87
2023/08/30 09:20:42;;;;;;;0.40;0.30;;;;;23.00;95975.00;;;;5027912;28;20217;-88
2023/08/30 09:23:33;;;;;;;1.10;0.50;;;;;23.30;95979.00;;;;5029387;28;20209;-87
2023/08/30 09:26:23;;;;;;;1.53;0.50;;;;;23.30;95973.00;;;;5024028;28;20335;-88
2023/08/30 09:29:13;;;;;;;0.70;0.50;;;;;23.30;95966.00;;;;5028318;28;20209;-87
2023/08/30 09:32:03;;;;;;;0.40;0.20;;;;;22.90;95965.00;;;;5029534;28;20221;-87
2023/08/30 09:34:52;;;;;;;2.53;0.50;;;;;22.60;95952.00;;;;5026779;28;20222;-85
2023/08/30 09:37:41;;;;;;;2.07;0.70;;;;;22.60;95954.00;;;;5029523;28;20205;-88
2023/08/30 09:40:33;;;;;;;2.80;0.47;;;;;22.80;95959.00;;;;5024732;28;20200;-87
2023/08/30 09:43:23;;;;;;;0.40;0.30;;;;;21.60;95947.00;;;;5029280;28;20205;-87
2023/08/30 09:46:13;;;;;;;1.93;0.30;;;;;21.00;95955.00;;;;5027623;28;20200;-87
2023/08/30 09:49:02;;;;;;;1.23;0.30;;;;;21.70;95957.00;;;;5028921;28;20197;-87
2023/08/30 09:51:52;;;;;;;0.47;0.47;;;;;22.70;95959.00;;;;5026831;28;20686;-86
2023/08/30 09:54:43;;;;;;;1.83;0.40;;;;;22.80;95964.00;;;;5029909;28;20209;-86
2023/08/30 09:57:34;;;;;;;2.30;0.53;;;;;22.50;95953.00;;;;5030154;28;20205;-87
2023/08/30 10:00:23;;;;;;;0.93;0.83;;;;;21.90;95939.00;;;;5029818;28;20325;-86
2023/08/30 10:03:12;;;;;;;0.60;0.40;;;;;21.60;95948.00;;;;5025500;28;20210;-87
2023/08/30 10:06:15;;;;;;;7.63;0.70;;;;;22.50;95941.00;;;;5024914;28;20720;-87
2023/08/30 10:09:04;;;;;;;0.30;0.20;;;;;23.00;95939.00;;;;5022994;28;20274;-89
2023/08/30 10:11:54;;;;;;;0.50;0.43;;;;;22.70;95944.00;;;;5027456;28;20236;-88
2023/08/30 10:14:44;;;;;;;1.37;0.40;;;;;22.80;95939.00;;;;5027459;28;20205;-87
2023/08/30 10:17:35;;;;;;;0.80;0.40;;;;;22.20;95926.00;;;;5033307;22;20280;-72
2023/08/30 10:20:24;;;;;;;0.83;0.40;;;;;21.90;95934.00;;;;5026683;28;20213;-72
2023/08/30 10:23:13;;;;;;;1.80;0.40;;;;;22.10;95931.00;;;;5030729;28;20200;-72
2023/08/30 10:26:03;;;;;;;1.70;0.40;;;;;22.80;95940.00;;;;5038679;28;20201;-72
2023/08/30 10:28:54;;;;;;;0.60;0.50;;;;;23.40;95938.00;;;;5010746;28;20696;-71
2023/08/30 10:31:44;;;;;;;1.97;0.80;;;;;23.70;95933.00;;;;5010323;28;20716;-71
2023/08/30 10:34:34;;;;;;;1.17;0.40;;;;;23.80;95937.00;;;;5005277;28;20716;-71
2023/08/30 10:37:28;;;;;;;1.40;0.50;;;;;24.10;95940.00;;;;5008827;28;20222;-71
2023/08/30 10:40:18;;;;;;;0.70;0.43;;;;;24.30;95946.00;;;;5009548;28;20205;-71
2023/08/30 10:43:07;;;;;;;1.63;0.53;;;;;24.20;95942.00;;;;5008348;28;20237;-71
2023/08/30 10:46:02;;;;;;;0.77;0.43;;;;;23.70;95933.00;;;;5009140;28;20217;-72
2023/08/30 10:48:52;;;;;;;0.87;0.30;;;;;22.90;95945.00;;;;5009849;28;20222;-72
2023/08/30 10:51:43;;;;;;;3.17;0.50;;;;;22.90;95953.00;;;;5009956;28;20198;-71
2023/08/30 10:54:39;;;;;;;0.67;0.40;;;;;23.50;95944.00;;;;5012394;28;20768;-72
2023/08/30 10:57:28;;;;;;;0.50;0.50;;;;;24.00;95942.00;;;;5002411;28;20732;-72
2023/08/30 11:00:21;;;;;;;2.67;2.13;;;;;23.50;95948.00;;;;5007774;28;20218;-72
2023/08/30 11:03:12;;;;;;;0.70;0.47;;;;;23.60;95947.00;;;;5008133;28;20344;-72
2023/08/30 11:06:03;;;;;;;1.03;0.50;;;;;23.30;95945.00;;;;5006337;28;20198;-72
2023/08/30 11:08:52;;;;;;;0.37;0.37;;;;;22.90;95949.00;;;;5007255;28;20229;-72
2023/08/30 11:11:41;;;;;;;3.30;0.40;;;;;23.60;95937.00;;;;5008348;28;20233;-72
2023/08/30 11:14:31;;;;;;;1.57;0.37;;;;;23.70;95938.00;;;;5002075;28;20674;-72
2023/08/30 11:17:20;;;;;;;0.40;0.20;;;;;23.50;95934.00;;;;5006879;28;20226;-72
2023/08/30 11:20:11;;;;;;;0.27;0.27;;;;;22.80;95934.00;;;;5012867;28;20206;-71
2023/08/30 11:23:04;;;;;;;0.70;0.50;;;;;23.00;95932.00;;;;5008274;28;20683;-71
2023/08/30 11:25:53;;;;;;;1.20;0.70;;;;;23.40;95938.00;;;;5009513;28;20299;-71
2023/08/30 11:28:48;;;;;;;1.77;0.80;;;;;23.70;95924.00;;;;5006665;28;20713;-71
2023/08/30 11:31:37;;;;;;;1.13;0.70;;;;;23.40;95929.00;;;;5012281;28;20853;-72
2023/08/30 11:34:26;;;;;;;0.70;0.53;;;;;24.50;95926.00;;;;5010221;28;20565;-71
2023/08/30 11:37:15;;;;;;;1.03;0.50;;;;;25.40;95925.00;;;;5000202;28;20234;-71
2023/08/30 11:40:07;;;;;;;1.30;0.50;;;;;26.00;95922.00;;;;5009227;28;20198;-72
2023/08/30 11:42:56;;;;;;;0.30;0.30;;;;;26.40;95922.00;;;;5009121;28;20210;-72
2023/08/30 11:45:45;;;;;;;1.57;0.40;;;;;26.80;95917.00;;;;5011182;28;20206;-72
2023/08/30 11:48:34;;;;;;;0.60;0.40;;;;;27.00;95928.00;;;;5012949;28;20234;-72
2023/08/30 11:51:23;;;;;;;1.17;0.90;;;;;27.00;95934.00;;;;5007684;28;20209;-72
2023/08/30 11:54:12;;;;;;;0.47;0.43;;;;;26.50;95939.00;;;;5020482;28;20759;-72
2023/08/30 11:57:03;;;;;;;1.33;0.33;;;;;26.70;95941.00;;;;5032927;28;20225;-72
2023/08/30 11:59:52;;;;;;;1.47;0.37;;;;;26.60;95935.00;;;;5024543;28;20216;-72
2023/08/30 12:02:41;;;;;;;0.60;0.40;;;;;26.00;95942.00;;;;5009088;28;20245;-72
2023/08/30 12:05:33;;;;;;;1.37;0.30;;;;;24.70;95942.00;;;;5025199;28;20209;-72
2023/08/30 12:08:24;;;;;;;0.40;0.40;;;;;25.80;95938.00;;;;5004391;28;20225;-72
2023/08/30 12:11:20;;;;;;;0.67;0.30;;;;;26.10;95937.00;;;;5013666;28;20216;-72
2023/08/30 12:14:10;;;;;;;0.60;0.50;;;;;26.10;95939.00;;;;5012597;28;20211;-72
2023/08/30 12:17:01;;;;;;;0.40;0.30;;;;;25.30;95919.00;;;;5012313;28;20227;-72
2023/08/30 12:19:57;;;;;;;0.50;0.30;;;;;24.60;95929.00;;;;5017161;28;20595;-72
2023/08/30 12:22:47;;;;;;;0.50;0.40;;;;;24.90;95930.00;;;;5014505;28;20203;-72
2023/08/30 12:25:36;;;;;;;0.40;0.30;;;;;25.00;95936.00;;;;5005752;28;20202;-72
2023/08/30 12:28:25;;;;;;;0.50;0.43;;;;;25.10;95927.00;;;;5011896;28;20233;-71
2023/08/30 12:31:16;;;;;;;1.33;0.30;;;;;25.10;95921.00;;;;5020917;28;20194;-72
2023/08/30 12:34:05;;;;;;;0.27;0.20;;;;;24.40;95924.00;;;;5012016;28;20809;-72
2023/08/30 12:36:55;;;;;;;0.30;0.30;;;;;24.40;95922.00;;;;5010336;28;20237;-73
2023/08/30 12:39:44;;;;;;;1.70;0.40;;;;;24.70;95919.00;;;;5014820;28;20210;-72
2023/08/30 12:42:33;;;;;;;2.20;0.40;;;;;23.40;95920.00;;;;5013794;28;20202;-70
2023/08/30 12:45:22;;;;;;;0.70;0.50;;;;;22.90;95904.00;;;;5011335;28;20669;-70
2023/08/30 12:48:15;;;;;;;0.73;0.47;;;;;23.00;95902.00;;;;5011658;28;20225;-70
2023/08/30 12:51:04;;;;;;;0.53;0.20;;;;;23.50;95907.00;;;;5015798;28;20202;-70
2023/08/30 12:53:53;;;;;;;0.33;0.23;;;;;23.40;95918.00;;;;5014965;28;20201;-70
2023/08/30 12:56:42;;;;;;;0.30;0.30;;;;;23.70;95922.00;;;;5015086;28;20217;-71
2023/08/30 12:59:31;;;;;;;2.93;0.50;;;;;23.60;95923.00;;;;5015581;28;20201;-70
2023/08/30 13:02:20;;;;;;;0.47;0.40;;;;;24.00;95932.00;;;;5014041;28;20201;-70
2023/08/30 13:05:10;;;;;;;0.50;0.20;;;;;24.20;95931.00;;;;5016563;28;20206;-70
2023/08/30 13:07:59;;;;;;;0.60;0.50;;;;;24.40;95928.00;;;;5015432;28;20228;-70
2023/08/30 13:10:48;;;;;;;2.83;0.50;;;;;24.50;95933.00;;;;5012370;28;20228;-70
2023/08/30 13:13:37;;;;;;;2.47;0.50;;;;;24.10;95938.00;;;;5013320;28;20230;-70
2023/08/30 13:16:27;;;;;;;0.33;0.30;;;;;24.40;95935.00;;;;5014135;28;20221;-70
2023/08/30 13:19:16;;;;;;;0.90;0.40;;;;;24.50;95938.00;;;;5012751;28;20221;-70
2023/08/30 13:22:06;;;;;;;0.53;0.33;;;;;24.20;95941.00;;;;5014229;28;20206;-70
2023/08/30 13:24:55;;;;;;;0.37;0.37;;;;;23.30;95935.00;;;;5012607;28;20591;-70
2023/08/30 13:27:44;;;;;;;0.47;0.37;;;;;22.60;95928.00;;;;5013614;28;20218;-71
2023/08/30 13:30:33;;;;;;;0.43;0.30;;;;;22.50;95931.00;;;;5012794;28;20575;-69
2023/08/30 13:33:22;;;;;;;0.67;0.67;;;;;22.10;95931.00;;;;5015395;28;20197;-70
2023/08/30 13:36:11;;;;;;;1.70;0.50;;;;;22.20;95932.00;;;;5017127;28;20205;-71
2023/08/30 13:39:02;;;;;;;1.27;0.53;;;;;22.50;95936.00;;;;5010316;28;20198;-71
2023/08/30 13:41:51;;;;;;;1.70;0.40;;;;;22.60;95937.00;;;;5013189;28;20209;-70
2023/08/30 13:44:42;;;;;;;2.77;0.50;;;;;22.80;95942.00;;;;5009695;28;20206;-70
2023/08/30 13:47:31;;;;;;;1.57;0.50;;;;;23.10;95951.00;;;;5014113;28;20221;-69
2023/08/30 13:50:20;;;;;;;0.40;0.30;;;;;23.20;95948.00;;;;5013099;28;20213;-70
2023/08/30 13:53:09;;;;;;;0.40;0.37;;;;;23.20;95953.00;;;;5016505;28;20712;-70
2023/08/30 13:55:59;;;;;;;0.90;0.50;;;;;23.10;95961.00;;;;5013733;28;20252;-70
2023/08/30 13:58:48;;;;;;;1.13;0.20;;;;;23.00;95962.00;;;;5008714;28;20607;-70
2023/08/30 14:01:37;;;;;;;1.70;0.30;;;;;22.80;95983.00;;;;5010765;28;20201;-70
2023/08/30 14:04:26;;;;;;;0.40;0.40;;;;;21.90;95993.00;;;;5009111;28;20271;-72
2023/08/30 14:07:15;;;;;;;1.17;0.63;;;;;21.70;96002.00;;;;5008823;28;20218;-71
2023/08/30 14:10:05;;;;;;;0.30;0.30;;;;;20.80;96004.00;;;;5008555;28;20205;-70
2023/08/30 14:12:55;;;;;;;0.70;0.50;;;;;21.30;96006.00;;;;5005626;28;20229;-73